Allendale, South Carolina
Current Conditions -  °F | °C
As of 2:35 PM on Friday 24 Oct 2014 (Local Time) from KBNL Reporting Station
Clear Clear  
Wind Chill: 73°   Ceiling: Unl
Heat Index: 73°   Visibility: 10mi
Dew Point: 45°   Wind: 5mph
Humidity: 36%   Direction: 280°W
Pressure: 30.02"   Gusts: NA
Location:  33.01°N, 81.31°W
Report Text: KBNL 241835Z AUTO 28004KT 10SM CLR 23/07 A3002 RMK AO2
Loading
Personal Weather Stations






























Interactive Weather Map
Tropical Storm Tracking
New forecast layout! Learn more

10-Day Weather Forecast

Advertisements
Track Severe Weather on mobile